sensor_id;sensor_type;location;lat;lon;timestamp;P1;durP1;ratioP1;P2;durP2;ratioP2
67768;SDS011;54569;52.018;5.584;2024-03-02T00:00:08;1.48;;;0.90;;
67768;SDS011;54569;52.018;5.584;2024-03-02T00:02:45;1.88;;;1.20;;
67768;SDS011;54569;52.018;5.584;2024-03-02T00:05:16;2.37;;;1.33;;
67768;SDS011;54569;52.018;5.584;2024-03-02T00:07:59;2.15;;;1.42;;
67768;SDS011;54569;52.018;5.584;2024-03-02T00:10:26;0.88;;;0.88;;
67768;SDS011;54569;52.018;5.584;2024-03-02T00:13:00;1.70;;;1.15;;
67768;SDS011;54569;52.018;5.584;2024-03-02T00:17:55;5.63;;;1.30;;
67768;SDS011;54569;52.018;5.584;2024-03-02T00:20:24;2.10;;;1.15;;
67768;SDS011;54569;52.018;5.584;2024-03-02T00:22:56;3.90;;;1.35;;
67768;SDS011;54569;52.018;5.584;2024-03-02T00:25:44;2.88;;;1.17;;
67768;SDS011;54569;52.018;5.584;2024-03-02T00:31:03;2.17;;;1.00;;
67768;SDS011;54569;52.018;5.584;2024-03-02T00:33:31;2.25;;;1.05;;
67768;SDS011;54569;52.018;5.584;2024-03-02T00:35:57;1.25;;;1.00;;
67768;SDS011;54569;52.018;5.584;2024-03-02T00:38:24;2.00;;;1.20;;
67768;SDS011;54569;52.018;5.584;2024-03-02T00:40:51;2.17;;;1.15;;
67768;SDS011;54569;52.018;5.584;2024-03-02T00:43:31;2.38;;;0.98;;
67768;SDS011;54569;52.018;5.584;2024-03-02T00:46:05;1.58;;;1.20;;
67768;SDS011;54569;52.018;5.584;2024-03-02T00:48:32;2.22;;;1.08;;
67768;SDS011;54569;52.018;5.584;2024-03-02T00:51:01;1.63;;;1.02;;
67768;SDS011;54569;52.018;5.584;2024-03-02T00:53:28;4.10;;;1.42;;
67768;SDS011;54569;52.018;5.584;2024-03-02T00:55:56;2.15;;;1.17;;
67768;SDS011;54569;52.018;5.584;2024-03-02T00:58:22;1.17;;;0.80;;
67768;SDS011;54569;52.018;5.584;2024-03-02T01:00:48;0.82;;;0.80;;
67768;SDS011;54569;52.018;5.584;2024-03-02T01:03:14;1.70;;;0.80;;
67768;SDS011;54569;52.018;5.584;2024-03-02T01:05:43;0.63;;;0.50;;
67768;SDS011;54569;52.018;5.584;2024-03-02T01:08:09;0.55;;;0.55;;
67768;SDS011;54569;52.018;5.584;2024-03-02T01:10:36;1.17;;;0.68;;
67768;SDS011;54569;52.018;5.584;2024-03-02T01:13:05;1.08;;;0.50;;
67768;SDS011;54569;52.018;5.584;2024-03-02T01:15:31;0.57;;;0.57;;
67768;SDS011;54569;52.018;5.584;2024-03-02T01:17:58;0.65;;;0.47;;
67768;SDS011;54569;52.018;5.584;2024-03-02T01:20:24;0.63;;;0.60;;
67768;SDS011;54569;52.018;5.584;2024-03-02T01:22:50;0.30;;;0.30;;
67768;SDS011;54569;52.018;5.584;2024-03-02T01:25:16;0.30;;;0.30;;
67768;SDS011;54569;52.018;5.584;2024-03-02T01:27:42;0.30;;;0.30;;
67768;SDS011;54569;52.018;5.584;2024-03-02T01:30:08;0.68;;;0.30;;
67768;SDS011;54569;52.018;5.584;2024-03-02T01:32:34;0.80;;;0.40;;
67768;SDS011;54569;52.018;5.584;2024-03-02T01:35:00;0.40;;;0.40;;
67768;SDS011;54569;52.018;5.584;2024-03-02T01:37:25;0.47;;;0.38;;
67768;SDS011;54569;52.018;5.584;2024-03-02T01:39:51;0.45;;;0.40;;
67768;SDS011;54569;52.018;5.584;2024-03-02T01:42:17;0.40;;;0.40;;
67768;SDS011;54569;52.018;5.584;2024-03-02T01:44:43;0.85;;;0.50;;
67768;SDS011;54569;52.018;5.584;2024-03-02T01:47:08;0.40;;;0.40;;
67768;SDS011;54569;52.018;5.584;2024-03-02T01:49:34;0.35;;;0.35;;
67768;SDS011;54569;52.018;5.584;2024-03-02T01:52:00;0.45;;;0.40;;
67768;SDS011;54569;52.018;5.584;2024-03-02T01:54:26;0.63;;;0.40;;
67768;SDS011;54569;52.018;5.584;2024-03-02T01:56:51;0.40;;;0.40;;
67768;SDS011;54569;52.018;5.584;2024-03-02T01:59:18;0.63;;;0.40;;
67768;SDS011;54569;52.018;5.584;2024-03-02T02:01:44;0.60;;;0.60;;
67768;SDS011;54569;52.018;5.584;2024-03-02T02:04:09;0.52;;;0.38;;
67768;SDS011;54569;52.018;5.584;2024-03-02T02:06:35;1.08;;;0.43;;
67768;SDS011;54569;52.018;5.584;2024-03-02T02:09:01;0.30;;;0.30;;
67768;SDS011;54569;52.018;5.584;2024-03-02T02:11:27;0.95;;;0.47;;
67768;SDS011;54569;52.018;5.584;2024-03-02T02:13:53;0.52;;;0.50;;
67768;SDS011;54569;52.018;5.584;2024-03-02T02:16:20;0.30;;;0.22;;
67768;SDS011;54569;52.018;5.584;2024-03-02T02:18:46;0.43;;;0.35;;
67768;SDS011;54569;52.018;5.584;2024-03-02T02:21:12;0.80;;;0.43;;
67768;SDS011;54569;52.018;5.584;2024-03-02T02:23:38;0.40;;;0.40;;
67768;SDS011;54569;52.018;5.584;2024-03-02T02:26:03;0.35;;;0.22;;
67768;SDS011;54569;52.018;5.584;2024-03-02T02:28:30;0.63;;;0.40;;
67768;SDS011;54569;52.018;5.584;2024-03-02T02:30:55;3.63;;;0.40;;
67768;SDS011;54569;52.018;5.584;2024-03-02T02:33:21;0.40;;;0.40;;
67768;SDS011;54569;52.018;5.584;2024-03-02T02:35:47;0.35;;;0.35;;
67768;SDS011;54569;52.018;5.584;2024-03-02T02:38:13;0.47;;;0.47;;
67768;SDS011;54569;52.018;5.584;2024-03-02T02:40:39;0.82;;;0.35;;
67768;SDS011;54569;52.018;5.584;2024-03-02T02:43:04;1.50;;;0.40;;
67768;SDS011;54569;52.018;5.584;2024-03-02T02:45:32;0.75;;;0.30;;
67768;SDS011;54569;52.018;5.584;2024-03-02T02:47:57;0.20;;;0.20;;
67768;SDS011;54569;52.018;5.584;2024-03-02T02:50:23;0.40;;;0.40;;
67768;SDS011;54569;52.018;5.584;2024-03-02T02:52:49;0.65;;;0.40;;
67768;SDS011;54569;52.018;5.584;2024-03-02T02:55:15;0.57;;;0.57;;
67768;SDS011;54569;52.018;5.584;2024-03-02T02:57:41;0.30;;;0.30;;
67768;SDS011;54569;52.018;5.584;2024-03-02T03:00:08;0.30;;;0.30;;
67768;SDS011;54569;52.018;5.584;2024-03-02T03:02:36;0.40;;;0.40;;
67768;SDS011;54569;52.018;5.584;2024-03-02T03:05:03;0.40;;;0.40;;
67768;SDS011;54569;52.018;5.584;2024-03-02T03:07:31;0.43;;;0.43;;
67768;SDS011;54569;52.018;5.584;2024-03-02T03:09:58;0.30;;;0.30;;
67768;SDS011;54569;52.018;5.584;2024-03-02T03:12:23;0.70;;;0.70;;
67768;SDS011;54569;52.018;5.584;2024-03-02T03:14:49;0.50;;;0.50;;
67768;SDS011;54569;52.018;5.584;2024-03-02T03:17:16;0.40;;;0.40;;
67768;SDS011;54569;52.018;5.584;2024-03-02T03:19:42;1.45;;;0.50;;
67768;SDS011;54569;52.018;5.584;2024-03-02T03:22:08;0.50;;;0.50;;
67768;SDS011;54569;52.018;5.584;2024-03-02T03:24:34;0.55;;;0.40;;
67768;SDS011;54569;52.018;5.584;2024-03-02T03:27:00;1.35;;;0.50;;
67768;SDS011;54569;52.018;5.584;2024-03-02T03:29:26;0.85;;;0.73;;
67768;SDS011;54569;52.018;5.584;2024-03-02T03:31:51;0.63;;;0.30;;
67768;SDS011;54569;52.018;5.584;2024-03-02T03:34:18;1.10;;;0.35;;
67768;SDS011;54569;52.018;5.584;2024-03-02T03:36:43;0.40;;;0.32;;
67768;SDS011;54569;52.018;5.584;2024-03-02T03:39:09;0.20;;;0.20;;
67768;SDS011;54569;52.018;5.584;2024-03-02T03:41:35;0.32;;;0.32;;
67768;SDS011;54569;52.018;5.584;2024-03-02T03:44:01;0.43;;;0.40;;
67768;SDS011;54569;52.018;5.584;2024-03-02T03:46:27;0.30;;;0.30;;
67768;SDS011;54569;52.018;5.584;2024-03-02T03:48:52;0.63;;;0.40;;
67768;SDS011;54569;52.018;5.584;2024-03-02T03:51:18;0.68;;;0.68;;
67768;SDS011;54569;52.018;5.584;2024-03-02T03:53:44;0.30;;;0.30;;
67768;SDS011;54569;52.018;5.584;2024-03-02T03:56:09;0.60;;;0.50;;
67768;SDS011;54569;52.018;5.584;2024-03-02T03:58:35;0.55;;;0.50;;
67768;SDS011;54569;52.018;5.584;2024-03-02T04:01:01;0.85;;;0.50;;
67768;SDS011;54569;52.018;5.584;2024-03-02T04:03:27;0.40;;;0.40;;
67768;SDS011;54569;52.018;5.584;2024-03-02T04:05:52;0.57;;;0.50;;
67768;SDS011;54569;52.018;5.584;2024-03-02T04:08:18;0.43;;;0.43;;
67768;SDS011;54569;52.018;5.584;2024-03-02T04:10:44;0.40;;;0.40;;
67768;SDS011;54569;52.018;5.584;2024-03-02T04:13:10;0.50;;;0.30;;
67768;SDS011;54569;52.018;5.584;2024-03-02T04:15:35;0.35;;;0.35;;
67768;SDS011;54569;52.018;5.584;2024-03-02T04:18:01;0.85;;;0.40;;
67768;SDS011;54569;52.018;5.584;2024-03-02T04:20:27;1.50;;;0.32;;
67768;SDS011;54569;52.018;5.584;2024-03-02T04:22:52;0.77;;;0.25;;
67768;SDS011;54569;52.018;5.584;2024-03-02T04:25:18;0.80;;;0.30;;
67768;SDS011;54569;52.018;5.584;2024-03-02T04:27:45;0.30;;;0.30;;
67768;SDS011;54569;52.018;5.584;2024-03-02T04:30:10;0.35;;;0.35;;
67768;SDS011;54569;52.018;5.584;2024-03-02T04:32:36;0.88;;;0.32;;
67768;SDS011;54569;52.018;5.584;2024-03-02T04:35:02;0.45;;;0.20;;
67768;SDS011;54569;52.018;5.584;2024-03-02T04:37:29;0.90;;;0.50;;
67768;SDS011;54569;52.018;5.584;2024-03-02T04:39:55;2.17;;;0.40;;
67768;SDS011;54569;52.018;5.584;2024-03-02T04:42:21;1.20;;;0.40;;
67768;SDS011;54569;52.018;5.584;2024-03-02T04:44:47;0.65;;;0.38;;
67768;SDS011;54569;52.018;5.584;2024-03-02T04:47:13;0.40;;;0.40;;
67768;SDS011;54569;52.018;5.584;2024-03-02T04:49:39;0.40;;;0.40;;
67768;SDS011;54569;52.018;5.584;2024-03-02T04:52:05;0.38;;;0.38;;
67768;SDS011;54569;52.018;5.584;2024-03-02T04:54:31;0.45;;;0.40;;
67768;SDS011;54569;52.018;5.584;2024-03-02T04:56:57;0.55;;;0.45;;
67768;SDS011;54569;52.018;5.584;2024-03-02T04:59:23;1.10;;;0.45;;
67768;SDS011;54569;52.018;5.584;2024-03-02T05:01:49;0.65;;;0.30;;
67768;SDS011;54569;52.018;5.584;2024-03-02T05:04:15;1.67;;;0.35;;
67768;SDS011;54569;52.018;5.584;2024-03-02T05:06:40;0.35;;;0.30;;
67768;SDS011;54569;52.018;5.584;2024-03-02T05:09:07;1.80;;;0.38;;
67768;SDS011;54569;52.018;5.584;2024-03-02T05:11:33;0.63;;;0.50;;
67768;SDS011;54569;52.018;5.584;2024-03-02T05:14:02;1.02;;;0.40;;
67768;SDS011;54569;52.018;5.584;2024-03-02T05:16:28;1.20;;;0.38;;
67768;SDS011;54569;52.018;5.584;2024-03-02T05:18:53;0.90;;;0.40;;
67768;SDS011;54569;52.018;5.584;2024-03-02T05:21:19;0.98;;;0.60;;
67768;SDS011;54569;52.018;5.584;2024-03-02T05:23:45;0.47;;;0.47;;
67768;SDS011;54569;52.018;5.584;2024-03-02T05:26:10;0.93;;;0.65;;
67768;SDS011;54569;52.018;5.584;2024-03-02T05:28:38;0.47;;;0.32;;
67768;SDS011;54569;52.018;5.584;2024-03-02T05:31:04;1.75;;;0.40;;
67768;SDS011;54569;52.018;5.584;2024-03-02T05:33:30;0.68;;;0.52;;
67768;SDS011;54569;52.018;5.584;2024-03-02T05:35:58;1.30;;;0.50;;
67768;SDS011;54569;52.018;5.584;2024-03-02T05:38:23;1.00;;;0.47;;
67768;SDS011;54569;52.018;5.584;2024-03-02T05:40:49;0.45;;;0.38;;
67768;SDS011;54569;52.018;5.584;2024-03-02T05:43:15;0.98;;;0.43;;
67768;SDS011;54569;52.018;5.584;2024-03-02T05:45:41;1.13;;;0.60;;
67768;SDS011;54569;52.018;5.584;2024-03-02T05:48:09;1.70;;;0.55;;
67768;SDS011;54569;52.018;5.584;2024-03-02T05:50:35;0.47;;;0.30;;
67768;SDS011;54569;52.018;5.584;2024-03-02T05:53:01;0.73;;;0.40;;
67768;SDS011;54569;52.018;5.584;2024-03-02T05:55:27;0.57;;;0.50;;
67768;SDS011;54569;52.018;5.584;2024-03-02T05:57:53;2.35;;;0.60;;
67768;SDS011;54569;52.018;5.584;2024-03-02T06:00:45;0.95;;;0.57;;
67768;SDS011;54569;52.018;5.584;2024-03-02T06:03:10;1.58;;;0.40;;
67768;SDS011;54569;52.018;5.584;2024-03-02T06:05:36;1.13;;;0.40;;
67768;SDS011;54569;52.018;5.584;2024-03-02T06:08:02;0.95;;;0.30;;
67768;SDS011;54569;52.018;5.584;2024-03-02T06:10:28;1.30;;;0.40;;
67768;SDS011;54569;52.018;5.584;2024-03-02T06:12:54;0.40;;;0.40;;
67768;SDS011;54569;52.018;5.584;2024-03-02T06:15:19;1.23;;;0.43;;
67768;SDS011;54569;52.018;5.584;2024-03-02T06:17:45;1.75;;;0.57;;
67768;SDS011;54569;52.018;5.584;2024-03-02T06:20:11;2.17;;;0.43;;
67768;SDS011;54569;52.018;5.584;2024-03-02T06:22:36;0.50;;;0.40;;
67768;SDS011;54569;52.018;5.584;2024-03-02T06:25:02;0.85;;;0.55;;
67768;SDS011;54569;52.018;5.584;2024-03-02T06:27:28;0.40;;;0.40;;
67768;SDS011;54569;52.018;5.584;2024-03-02T06:29:54;0.65;;;0.40;;
67768;SDS011;54569;52.018;5.584;2024-03-02T06:32:20;1.35;;;0.40;;
67768;SDS011;54569;52.018;5.584;2024-03-02T06:34:46;0.30;;;0.30;;
67768;SDS011;54569;52.018;5.584;2024-03-02T06:37:11;2.10;;;0.50;;
67768;SDS011;54569;52.018;5.584;2024-03-02T06:39:38;2.05;;;0.70;;
67768;SDS011;54569;52.018;5.584;2024-03-02T06:42:03;2.05;;;0.73;;
67768;SDS011;54569;52.018;5.584;2024-03-02T06:44:29;1.20;;;0.50;;
67768;SDS011;54569;52.018;5.584;2024-03-02T06:46:55;0.63;;;0.55;;
67768;SDS011;54569;52.018;5.584;2024-03-02T06:49:21;2.08;;;0.60;;
67768;SDS011;54569;52.018;5.584;2024-03-02T06:51:46;1.42;;;0.50;;
67768;SDS011;54569;52.018;5.584;2024-03-02T06:54:12;1.85;;;0.50;;
67768;SDS011;54569;52.018;5.584;2024-03-02T06:56:38;0.80;;;0.40;;
67768;SDS011;54569;52.018;5.584;2024-03-02T06:59:04;0.95;;;0.65;;
67768;SDS011;54569;52.018;5.584;2024-03-02T07:01:30;1.95;;;0.60;;
67768;SDS011;54569;52.018;5.584;2024-03-02T07:03:55;2.20;;;0.70;;
67768;SDS011;54569;52.018;5.584;2024-03-02T07:06:21;0.65;;;0.40;;
67768;SDS011;54569;52.018;5.584;2024-03-02T07:08:47;0.75;;;0.32;;
67768;SDS011;54569;52.018;5.584;2024-03-02T07:11:13;1.95;;;0.57;;
67768;SDS011;54569;52.018;5.584;2024-03-02T07:13:38;0.60;;;0.60;;
67768;SDS011;54569;52.018;5.584;2024-03-02T07:16:04;0.40;;;0.40;;
67768;SDS011;54569;52.018;5.584;2024-03-02T07:18:36;0.40;;;0.40;;
67768;SDS011;54569;52.018;5.584;2024-03-02T07:21:10;2.92;;;0.50;;
67768;SDS011;54569;52.018;5.584;2024-03-02T07:23:36;0.95;;;0.40;;
67768;SDS011;54569;52.018;5.584;2024-03-02T07:26:02;1.27;;;0.70;;
67768;SDS011;54569;52.018;5.584;2024-03-02T07:28:28;1.08;;;0.52;;
67768;SDS011;54569;52.018;5.584;2024-03-02T07:31:01;0.60;;;0.60;;
67768;SDS011;54569;52.018;5.584;2024-03-02T07:33:33;1.42;;;0.60;;
67768;SDS011;54569;52.018;5.584;2024-03-02T07:35:58;1.48;;;0.60;;
67768;SDS011;54569;52.018;5.584;2024-03-02T07:38:26;0.60;;;0.60;;
67768;SDS011;54569;52.018;5.584;2024-03-02T07:40:53;2.00;;;0.70;;
67768;SDS011;54569;52.018;5.584;2024-03-02T07:43:19;1.38;;;0.68;;
67768;SDS011;54569;52.018;5.584;2024-03-02T07:45:45;0.85;;;0.85;;
67768;SDS011;54569;52.018;5.584;2024-03-02T07:48:11;1.08;;;0.73;;
67768;SDS011;54569;52.018;5.584;2024-03-02T07:50:37;0.63;;;0.60;;
67768;SDS011;54569;52.018;5.584;2024-03-02T07:53:04;0.65;;;0.60;;
67768;SDS011;54569;52.018;5.584;2024-03-02T07:55:31;1.08;;;0.80;;
67768;SDS011;54569;52.018;5.584;2024-03-02T07:57:57;1.02;;;0.55;;
67768;SDS011;54569;52.018;5.584;2024-03-02T08:00:23;1.23;;;0.82;;
67768;SDS011;54569;52.018;5.584;2024-03-02T08:02:49;1.38;;;0.50;;
67768;SDS011;54569;52.018;5.584;2024-03-02T08:05:19;1.23;;;0.60;;
67768;SDS011;54569;52.018;5.584;2024-03-02T08:07:46;0.80;;;0.50;;
67768;SDS011;54569;52.018;5.584;2024-03-02T08:10:12;1.55;;;0.63;;
67768;SDS011;54569;52.018;5.584;2024-03-02T08:12:39;1.15;;;0.70;;
67768;SDS011;54569;52.018;5.584;2024-03-02T08:15:05;1.67;;;0.70;;
67768;SDS011;54569;52.018;5.584;2024-03-02T08:17:31;1.33;;;0.70;;
67768;SDS011;54569;52.018;5.584;2024-03-02T08:19:57;1.40;;;0.70;;
67768;SDS011;54569;52.018;5.584;2024-03-02T08:22:23;1.20;;;0.40;;
67768;SDS011;54569;52.018;5.584;2024-03-02T08:24:52;0.90;;;0.57;;
67768;SDS011;54569;52.018;5.584;2024-03-02T08:27:18;1.90;;;0.60;;
67768;SDS011;54569;52.018;5.584;2024-03-02T08:29:44;0.75;;;0.75;;
67768;SDS011;54569;52.018;5.584;2024-03-02T08:32:10;2.97;;;0.75;;
67768;SDS011;54569;52.018;5.584;2024-03-02T08:34:36;1.33;;;0.68;;
67768;SDS011;54569;52.018;5.584;2024-03-02T08:37:01;1.40;;;0.52;;
67768;SDS011;54569;52.018;5.584;2024-03-02T08:39:28;1.00;;;0.60;;
67768;SDS011;54569;52.018;5.584;2024-03-02T08:41:54;1.25;;;0.52;;
67768;SDS011;54569;52.018;5.584;2024-03-02T08:44:19;0.65;;;0.50;;
67768;SDS011;54569;52.018;5.584;2024-03-02T08:46:45;1.85;;;0.60;;
67768;SDS011;54569;52.018;5.584;2024-03-02T08:49:12;1.67;;;0.60;;
67768;SDS011;54569;52.018;5.584;2024-03-02T08:51:38;0.82;;;0.43;;
67768;SDS011;54569;52.018;5.584;2024-03-02T08:54:04;1.67;;;0.70;;
67768;SDS011;54569;52.018;5.584;2024-03-02T08:56:30;0.93;;;0.60;;
67768;SDS011;54569;52.018;5.584;2024-03-02T08:58:56;1.48;;;0.65;;
67768;SDS011;54569;52.018;5.584;2024-03-02T09:01:22;1.45;;;0.70;;
67768;SDS011;54569;52.018;5.584;2024-03-02T09:03:48;1.90;;;0.82;;
67768;SDS011;54569;52.018;5.584;2024-03-02T09:06:14;1.63;;;0.80;;
67768;SDS011;54569;52.018;5.584;2024-03-02T09:08:42;2.47;;;0.75;;
67768;SDS011;54569;52.018;5.584;2024-03-02T09:11:08;1.20;;;0.60;;
67768;SDS011;54569;52.018;5.584;2024-03-02T09:13:35;1.73;;;0.88;;
67768;SDS011;54569;52.018;5.584;2024-03-02T09:16:03;2.50;;;1.00;;
67768;SDS011;54569;52.018;5.584;2024-03-02T09:18:30;1.27;;;0.73;;
67768;SDS011;54569;52.018;5.584;2024-03-02T09:20:56;2.03;;;1.00;;
67768;SDS011;54569;52.018;5.584;2024-03-02T09:23:22;2.85;;;1.10;;
67768;SDS011;54569;52.018;5.584;2024-03-02T09:25:47;1.40;;;1.02;;
67768;SDS011;54569;52.018;5.584;2024-03-02T09:28:15;1.80;;;1.25;;
67768;SDS011;54569;52.018;5.584;2024-03-02T09:30:41;1.67;;;1.00;;
67768;SDS011;54569;52.018;5.584;2024-03-02T09:33:07;2.30;;;1.00;;
67768;SDS011;54569;52.018;5.584;2024-03-02T09:35:32;1.55;;;0.98;;
67768;SDS011;54569;52.018;5.584;2024-03-02T09:37:58;2.00;;;1.35;;
67768;SDS011;54569;52.018;5.584;2024-03-02T09:40:24;2.67;;;1.00;;
67768;SDS011;54569;52.018;5.584;2024-03-02T09:42:50;2.28;;;0.80;;
67768;SDS011;54569;52.018;5.584;2024-03-02T09:45:22;1.95;;;1.10;;
67768;SDS011;54569;52.018;5.584;2024-03-02T09:47:49;1.90;;;0.80;;
67768;SDS011;54569;52.018;5.584;2024-03-02T09:50:15;1.58;;;0.70;;
67768;SDS011;54569;52.018;5.584;2024-03-02T09:52:46;1.35;;;0.82;;
67768;SDS011;54569;52.018;5.584;2024-03-02T09:55:13;3.05;;;0.70;;
67768;SDS011;54569;52.018;5.584;2024-03-02T09:57:41;1.55;;;0.88;;
67768;SDS011;54569;52.018;5.584;2024-03-02T10:00:10;2.45;;;0.70;;
67768;SDS011;54569;52.018;5.584;2024-03-02T10:02:40;3.10;;;0.82;;
67768;SDS011;54569;52.018;5.584;2024-03-02T10:05:07;1.52;;;0.70;;
67768;SDS011;54569;52.018;5.584;2024-03-02T10:07:37;1.67;;;0.70;;
67768;SDS011;54569;52.018;5.584;2024-03-02T10:10:15;1.33;;;0.73;;
67768;SDS011;54569;52.018;5.584;2024-03-02T10:12:41;1.65;;;0.75;;
67768;SDS011;54569;52.018;5.584;2024-03-02T10:15:07;1.52;;;0.80;;
67768;SDS011;54569;52.018;5.584;2024-03-02T10:17:34;2.40;;;1.00;;
67768;SDS011;54569;52.018;5.584;2024-03-02T10:20:20;1.92;;;0.82;;
67768;SDS011;54569;52.018;5.584;2024-03-02T10:22:48;3.30;;;0.88;;
67768;SDS011;54569;52.018;5.584;2024-03-02T10:27:57;2.03;;;0.93;;
67768;SDS011;54569;52.018;5.584;2024-03-02T10:30:24;2.08;;;1.00;;
67768;SDS011;54569;52.018;5.584;2024-03-02T10:32:50;2.70;;;0.93;;
67768;SDS011;54569;52.018;5.584;2024-03-02T10:35:17;2.92;;;0.85;;
67768;SDS011;54569;52.018;5.584;2024-03-02T10:37:44;2.65;;;0.80;;
67768;SDS011;54569;52.018;5.584;2024-03-02T10:40:10;3.90;;;0.70;;
67768;SDS011;54569;52.018;5.584;2024-03-02T10:42:37;3.25;;;0.70;;
67768;SDS011;54569;52.018;5.584;2024-03-02T10:45:07;1.38;;;0.80;;
67768;SDS011;54569;52.018;5.584;2024-03-02T10:47:36;1.23;;;0.75;;
67768;SDS011;54569;52.018;5.584;2024-03-02T10:50:04;1.70;;;0.70;;
67768;SDS011;54569;52.018;5.584;2024-03-02T10:52:36;3.17;;;0.70;;
67768;SDS011;54569;52.018;5.584;2024-03-02T10:55:04;3.78;;;1.00;;
67768;SDS011;54569;52.018;5.584;2024-03-02T10:57:33;1.83;;;0.80;;
67768;SDS011;54569;52.018;5.584;2024-03-02T11:00:23;1.58;;;0.80;;
67768;SDS011;54569;52.018;5.584;2024-03-02T11:02:58;2.03;;;0.77;;
67768;SDS011;54569;52.018;5.584;2024-03-02T11:05:35;2.97;;;0.63;;
67768;SDS011;54569;52.018;5.584;2024-03-02T11:08:02;2.35;;;0.80;;
67768;SDS011;54569;52.018;5.584;2024-03-02T11:10:36;1.65;;;0.75;;
67768;SDS011;54569;52.018;5.584;2024-03-02T11:13:10;1.25;;;0.70;;
67768;SDS011;54569;52.018;5.584;2024-03-02T11:15:37;1.60;;;1.00;;
67768;SDS011;54569;52.018;5.584;2024-03-02T11:18:08;2.33;;;0.88;;
67768;SDS011;54569;52.018;5.584;2024-03-02T11:20:40;3.72;;;0.90;;
67768;SDS011;54569;52.018;5.584;2024-03-02T11:23:07;2.50;;;0.90;;
67768;SDS011;54569;52.018;5.584;2024-03-02T11:25:34;1.95;;;0.90;;
67768;SDS011;54569;52.018;5.584;2024-03-02T11:28:04;2.17;;;0.80;;
67768;SDS011;54569;52.018;5.584;2024-03-02T11:32:57;1.13;;;0.70;;
67768;SDS011;54569;52.018;5.584;2024-03-02T11:35:24;2.80;;;0.95;;
67768;SDS011;54569;52.018;5.584;2024-03-02T11:37:54;0.93;;;0.60;;
67768;SDS011;54569;52.018;5.584;2024-03-02T11:40:24;2.55;;;0.90;;
67768;SDS011;54569;52.018;5.584;2024-03-02T11:42:50;1.40;;;0.70;;
67768;SDS011;54569;52.018;5.584;2024-03-02T11:45:17;3.20;;;1.20;;
67768;SDS011;54569;52.018;5.584;2024-03-02T11:47:49;1.25;;;0.90;;
67768;SDS011;54569;52.018;5.584;2024-03-02T11:50:28;2.40;;;1.02;;
67768;SDS011;54569;52.018;5.584;2024-03-02T11:53:03;1.98;;;0.68;;
67768;SDS011;54569;52.018;5.584;2024-03-02T11:55:31;1.70;;;0.90;;
67768;SDS011;54569;52.018;5.584;2024-03-02T11:58:01;2.50;;;0.93;;
67768;SDS011;54569;52.018;5.584;2024-03-02T12:00:30;2.08;;;1.00;;
67768;SDS011;54569;52.018;5.584;2024-03-02T12:03:04;2.10;;;0.90;;
67768;SDS011;54569;52.018;5.584;2024-03-02T12:05:30;1.08;;;0.70;;
67768;SDS011;54569;52.018;5.584;2024-03-02T12:07:57;2.58;;;1.00;;
67768;SDS011;54569;52.018;5.584;2024-03-02T12:10:24;1.90;;;0.80;;
67768;SDS011;54569;52.018;5.584;2024-03-02T12:13:00;2.50;;;1.02;;
67768;SDS011;54569;52.018;5.584;2024-03-02T12:15:28;2.35;;;0.70;;
67768;SDS011;54569;52.018;5.584;2024-03-02T12:17:56;2.13;;;1.08;;
67768;SDS011;54569;52.018;5.584;2024-03-02T12:20:23;2.72;;;0.82;;
67768;SDS011;54569;52.018;5.584;2024-03-02T12:22:50;1.27;;;1.08;;
67768;SDS011;54569;52.018;5.584;2024-03-02T12:25:20;1.58;;;0.82;;
67768;SDS011;54569;52.018;5.584;2024-03-02T12:27:46;1.13;;;0.80;;
67768;SDS011;54569;52.018;5.584;2024-03-02T12:30:15;1.27;;;0.65;;
67768;SDS011;54569;52.018;5.584;2024-03-02T12:32:42;2.15;;;0.80;;
67768;SDS011;54569;52.018;5.584;2024-03-02T12:35:09;2.05;;;0.90;;
67768;SDS011;54569;52.018;5.584;2024-03-02T12:37:49;2.35;;;0.90;;
67768;SDS011;54569;52.018;5.584;2024-03-02T12:40:17;3.80;;;1.02;;
67768;SDS011;54569;52.018;5.584;2024-03-02T12:42:44;1.55;;;0.90;;
67768;SDS011;54569;52.018;5.584;2024-03-02T12:45:11;2.90;;;0.77;;
67768;SDS011;54569;52.018;5.584;2024-03-02T12:47:39;2.08;;;0.88;;
67768;SDS011;54569;52.018;5.584;2024-03-02T12:50:06;2.10;;;1.05;;
67768;SDS011;54569;52.018;5.584;2024-03-02T12:52:33;2.60;;;0.80;;
67768;SDS011;54569;52.018;5.584;2024-03-02T12:54:59;5.80;;;0.85;;
67768;SDS011;54569;52.018;5.584;2024-03-02T12:57:28;3.60;;;1.08;;
67768;SDS011;54569;52.018;5.584;2024-03-02T12:59:58;1.63;;;0.80;;
67768;SDS011;54569;52.018;5.584;2024-03-02T13:02:27;2.15;;;0.80;;
67768;SDS011;54569;52.018;5.584;2024-03-02T13:04:54;3.17;;;0.90;;
67768;SDS011;54569;52.018;5.584;2024-03-02T13:07:20;2.53;;;0.80;;
67768;SDS011;54569;52.018;5.584;2024-03-02T13:09:50;2.85;;;1.00;;
67768;SDS011;54569;52.018;5.584;2024-03-02T13:12:16;4.63;;;1.20;;
67768;SDS011;54569;52.018;5.584;2024-03-02T13:14:42;1.95;;;0.75;;
67768;SDS011;54569;52.018;5.584;2024-03-02T13:17:09;5.25;;;2.10;;
67768;SDS011;54569;52.018;5.584;2024-03-02T13:19:34;6.55;;;1.58;;
67768;SDS011;54569;52.018;5.584;2024-03-02T13:22:00;3.75;;;1.15;;
67768;SDS011;54569;52.018;5.584;2024-03-02T13:24:30;2.08;;;1.10;;
67768;SDS011;54569;52.018;5.584;2024-03-02T13:26:56;2.50;;;1.13;;
67768;SDS011;54569;52.018;5.584;2024-03-02T13:29:23;3.38;;;1.10;;
67768;SDS011;54569;52.018;5.584;2024-03-02T13:31:49;3.72;;;1.45;;
67768;SDS011;54569;52.018;5.584;2024-03-02T13:34:15;3.97;;;1.15;;
67768;SDS011;54569;52.018;5.584;2024-03-02T13:36:41;1.63;;;0.95;;
67768;SDS011;54569;52.018;5.584;2024-03-02T13:39:07;3.35;;;0.98;;
67768;SDS011;54569;52.018;5.584;2024-03-02T13:41:35;1.58;;;0.90;;
67768;SDS011;54569;52.018;5.584;2024-03-02T13:44:01;4.20;;;1.23;;
67768;SDS011;54569;52.018;5.584;2024-03-02T13:46:28;1.85;;;0.95;;
67768;SDS011;54569;52.018;5.584;2024-03-02T13:48:54;2.67;;;1.00;;
67768;SDS011;54569;52.018;5.584;2024-03-02T13:51:23;2.17;;;1.20;;
67768;SDS011;54569;52.018;5.584;2024-03-02T13:53:50;1.70;;;0.90;;
67768;SDS011;54569;52.018;5.584;2024-03-02T13:56:16;1.52;;;0.88;;
67768;SDS011;54569;52.018;5.584;2024-03-02T13:58:42;3.13;;;1.13;;
67768;SDS011;54569;52.018;5.584;2024-03-02T14:01:09;2.35;;;0.90;;
67768;SDS011;54569;52.018;5.584;2024-03-02T14:03:34;4.05;;;1.10;;
67768;SDS011;54569;52.018;5.584;2024-03-02T14:06:00;3.85;;;1.20;;
67768;SDS011;54569;52.018;5.584;2024-03-02T14:08:26;3.85;;;0.93;;
67768;SDS011;54569;52.018;5.584;2024-03-02T14:10:52;3.88;;;1.30;;
67768;SDS011;54569;52.018;5.584;2024-03-02T14:13:19;2.53;;;0.70;;
67768;SDS011;54569;52.018;5.584;2024-03-02T14:15:45;1.67;;;0.70;;
67768;SDS011;54569;52.018;5.584;2024-03-02T14:18:11;2.22;;;0.73;;
67768;SDS011;54569;52.018;5.584;2024-03-02T14:20:37;2.22;;;0.90;;
67768;SDS011;54569;52.018;5.584;2024-03-02T14:23:03;2.80;;;1.00;;
67768;SDS011;54569;52.018;5.584;2024-03-02T14:25:29;3.60;;;1.20;;
67768;SDS011;54569;52.018;5.584;2024-03-02T14:27:59;2.65;;;0.80;;
67768;SDS011;54569;52.018;5.584;2024-03-02T14:30:25;1.65;;;0.60;;
67768;SDS011;54569;52.018;5.584;2024-03-02T14:32:51;4.35;;;1.20;;
67768;SDS011;54569;52.018;5.584;2024-03-02T14:35:17;2.25;;;0.80;;
67768;SDS011;54569;52.018;5.584;2024-03-02T14:37:43;2.97;;;1.10;;
67768;SDS011;54569;52.018;5.584;2024-03-02T14:40:09;1.70;;;0.90;;
67768;SDS011;54569;52.018;5.584;2024-03-02T14:42:36;2.20;;;1.02;;
67768;SDS011;54569;52.018;5.584;2024-03-02T14:45:02;2.10;;;0.88;;
67768;SDS011;54569;52.018;5.584;2024-03-02T14:47:31;1.75;;;0.68;;
67768;SDS011;54569;52.018;5.584;2024-03-02T14:49:58;1.80;;;1.08;;
67768;SDS011;54569;52.018;5.584;2024-03-02T14:52:24;1.75;;;0.82;;
67768;SDS011;54569;52.018;5.584;2024-03-02T14:54:50;1.75;;;0.63;;
67768;SDS011;54569;52.018;5.584;2024-03-02T14:57:16;2.60;;;1.05;;